Time;durP1;ratioP1;P1;durP2;ratioP2;P2;SDS_P1;SDS_P2;PMS_P1;PMS_P2;Temp;Humidity;BMP_temperature;BMP_pressure;BME280_temperature;BME280_humidity;BME280_pressure;Samples;Min_cycle;Max_cycle;Signal;HPM_P1;HPM_P2
2023/12/03 00:02:02;;;;;;;0.10;0.10;;;;;;;-1.67;100.00;99405.69;5154775;27;20235;-51
2023/12/03 00:04:52;;;;;;;0.07;0.07;;;;;;;-1.72;100.00;99405.75;5153402;27;20274;-51
2023/12/03 00:07:39;;;;;;;0.10;0.10;;;;;;;-1.50;100.00;99399.44;5154643;27;20191;-51
2023/12/03 00:10:26;;;;;;;0.00;0.00;;;;;;;-1.58;100.00;99398.66;5154689;27;20183;-52
2023/12/03 00:13:15;;;;;;;0.00;0.00;;;;;;;-1.77;100.00;99400.59;5154697;27;20204;-51
2023/12/03 00:16:01;;;;;;;0.10;0.10;;;;;;;-1.83;100.00;99400.69;5154676;27;20258;-51
2023/12/03 00:18:48;;;;;;;0.10;0.10;;;;;;;-1.57;100.00;99407.31;5154341;27;20204;-51
2023/12/03 00:21:35;;;;;;;0.10;0.10;;;;;;;-1.61;100.00;99408.22;5153264;27;20181;-51
2023/12/03 00:24:22;;;;;;;0.10;0.10;;;;;;;-1.52;100.00;99416.78;5154630;27;20193;-51
2023/12/03 00:27:09;;;;;;;0.00;0.00;;;;;;;-1.12;100.00;99410.25;5138306;27;20225;-51
2023/12/03 00:29:57;;;;;;;0.07;0.07;;;;;;;-1.44;100.00;99403.72;5138751;27;20671;-52
2023/12/03 00:32:44;;;;;;;0.00;0.00;;;;;;;-1.54;100.00;99399.50;5154543;27;20193;-50
2023/12/03 00:35:31;;;;;;;0.10;0.10;;;;;;;-1.51;100.00;99396.88;5152852;27;20216;-51
2023/12/03 00:38:18;;;;;;;0.00;0.00;;;;;;;-1.37;100.00;99402.75;5154357;27;20258;-51
2023/12/03 00:41:05;;;;;;;0.10;0.10;;;;;;;-1.28;100.00;99407.81;5154378;27;20198;-51
2023/12/03 00:43:52;;;;;;;0.00;0.00;;;;;;;-1.50;100.00;99406.38;5158099;27;20192;-51
2023/12/03 00:46:40;;;;;;;0.00;0.00;;;;;;;-1.51;100.00;99399.47;5158304;27;20193;-51
2023/12/03 00:49:28;;;;;;;0.10;0.10;;;;;;;-1.51;100.00;99400.31;5156901;27;20189;-51
2023/12/03 00:52:15;;;;;;;0.10;0.10;;;;;;;-1.35;100.00;99408.81;5158083;27;20199;-51
2023/12/03 00:55:03;;;;;;;0.07;0.07;;;;;;;-1.48;100.00;99396.81;5158189;27;20447;-51
2023/12/03 00:57:50;;;;;;;0.10;0.10;;;;;;;-1.17;100.00;99411.13;5158217;27;20204;-51
2023/12/03 01:00:37;;;;;;;0.10;0.10;;;;;;;-1.29;100.00;99408.72;5157699;27;20217;-51
2023/12/03 01:03:25;;;;;;;0.00;0.00;;;;;;;-1.46;100.00;99414.09;5158022;27;20201;-51
2023/12/03 01:06:12;;;;;;;0.00;0.00;;;;;;;-1.41;100.00;99414.06;5156663;27;20677;-51
2023/12/03 01:08:59;;;;;;;0.10;0.10;;;;;;;-1.36;100.00;99414.00;5157656;27;20192;-51
2023/12/03 01:11:45;;;;;;;0.10;0.10;;;;;;;-1.29;100.00;99416.50;5157931;27;20188;-51
2023/12/03 01:14:32;;;;;;;0.10;0.10;;;;;;;-1.28;100.00;99430.34;5157808;27;20192;-51
2023/12/03 01:17:19;;;;;;;0.10;0.10;;;;;;;-1.06;100.00;99436.13;5157583;27;20189;-51
2023/12/03 01:20:09;;;;;;;0.10;0.10;;;;;;;-1.27;100.00;99443.31;5156256;27;20258;-52
2023/12/03 01:22:56;;;;;;;0.10;0.10;;;;;;;-1.29;100.00;99452.00;5157754;27;20264;-52
2023/12/03 01:25:43;;;;;;;0.10;0.10;;;;;;;-1.61;100.00;99450.63;5157441;27;20234;-51
2023/12/03 01:28:30;;;;;;;0.10;0.10;;;;;;;-1.51;100.00;99448.81;5116202;28;20202;-52
2023/12/03 01:31:17;;;;;;;0.00;0.00;;;;;;;-1.33;100.00;99452.94;5116308;28;20185;-50
2023/12/03 01:34:04;;;;;;;0.10;0.10;;;;;;;-1.30;100.00;99468.47;5116051;28;20260;-50
2023/12/03 01:36:52;;;;;;;0.10;0.10;;;;;;;-1.11;100.00;99462.19;5116132;28;20210;-51
2023/12/03 01:39:39;;;;;;;0.00;0.00;;;;;;;-1.19;100.00;99454.47;5115954;28;20712;-51
2023/12/03 01:42:25;;;;;;;0.10;0.10;;;;;;;-1.12;100.00;99452.69;5115869;28;20190;-51
2023/12/03 01:45:13;;;;;;;0.07;0.07;;;;;;;-1.30;100.00;99456.34;5116011;28;20244;-52
2023/12/03 01:48:00;;;;;;;0.00;0.00;;;;;;;-1.35;100.00;99470.25;5116065;28;20186;-51
2023/12/03 01:50:49;;;;;;;0.00;0.00;;;;;;;-1.45;100.00;99467.78;5114315;28;20182;-51
2023/12/03 01:53:39;;;;;;;0.10;0.10;;;;;;;-1.57;100.00;99465.28;5114493;28;20191;-52
2023/12/03 01:56:25;;;;;;;0.00;0.00;;;;;;;-1.51;100.00;99467.84;5115783;28;20202;-51
2023/12/03 01:59:13;;;;;;;0.00;0.00;;;;;;;-1.49;100.00;99467.81;5115522;28;20216;-51
2023/12/03 02:01:59;;;;;;;0.00;0.00;;;;;;;-1.19;100.00;99472.69;5115766;28;20194;-51
2023/12/03 02:04:46;;;;;;;0.00;0.00;;;;;;;-1.14;100.00;99484.78;5114254;28;20210;-51
2023/12/03 02:07:33;;;;;;;0.10;0.10;;;;;;;-1.26;100.00;99490.94;5115411;28;20194;-51
2023/12/03 02:10:22;;;;;;;0.10;0.10;;;;;;;-0.79;100.00;99479.97;5115497;28;20263;-51
2023/12/03 02:13:08;;;;;;;0.00;0.00;;;;;;;-0.94;100.00;99486.25;5115515;28;20195;-51
2023/12/03 02:15:55;;;;;;;0.10;0.10;;;;;;;-1.08;100.00;99488.13;5115314;28;20240;-51
2023/12/03 02:18:42;;;;;;;0.00;0.00;;;;;;;-1.16;100.00;99474.38;5115366;28;20194;-51
2023/12/03 02:21:29;;;;;;;0.10;0.10;;;;;;;-1.09;100.00;99480.38;5113816;28;20210;-51
2023/12/03 02:24:17;;;;;;;0.00;0.00;;;;;;;-1.34;100.00;99472.88;5115172;28;20194;-51
2023/12/03 02:27:04;;;;;;;0.00;0.00;;;;;;;-1.62;100.00;99474.03;5133352;27;20677;-51
2023/12/03 02:29:51;;;;;;;0.10;0.10;;;;;;;-1.60;100.00;99478.31;5156433;27;20551;-51
2023/12/03 02:32:38;;;;;;;0.10;0.10;;;;;;;-1.51;100.00;99477.38;5156279;27;20216;-50
2023/12/03 02:35:25;;;;;;;0.10;0.10;;;;;;;-1.87;100.00;99487.22;5154888;27;20204;-51
2023/12/03 02:38:12;;;;;;;0.10;0.10;;;;;;;-1.81;100.00;99484.59;5156175;27;20188;-51
2023/12/03 02:41:00;;;;;;;0.10;0.10;;;;;;;-1.91;100.00;99487.28;5155899;27;20698;-50
2023/12/03 02:43:47;;;;;;;0.10;0.10;;;;;;;-1.85;100.00;99495.00;5156020;27;20234;-51
2023/12/03 02:46:34;;;;;;;0.10;0.10;;;;;;;-1.65;100.00;99495.66;5156013;27;20691;-51
2023/12/03 02:49:21;;;;;;;0.10;0.10;;;;;;;-1.52;100.00;99499.03;5154616;27;20199;-51
2023/12/03 02:52:09;;;;;;;0.00;0.00;;;;;;;-1.49;100.00;99492.06;5156000;27;20193;-51
2023/12/03 02:54:56;;;;;;;0.10;0.10;;;;;;;-1.47;100.00;99492.88;5155942;27;20197;-51
2023/12/03 02:57:44;;;;;;;0.10;0.10;;;;;;;-1.37;100.00;99491.06;5155998;27;20254;-52
2023/12/03 03:00:31;;;;;;;0.10;0.10;;;;;;;-1.37;100.00;99493.66;5155818;27;20216;-51
2023/12/03 03:03:18;;;;;;;0.10;0.10;;;;;;;-1.59;100.00;99489.56;5155688;27;20199;-52
2023/12/03 03:06:05;;;;;;;0.10;0.10;;;;;;;-1.18;100.00;99491.72;5153942;27;20196;-51
2023/12/03 03:08:52;;;;;;;0.10;0.10;;;;;;;-1.28;100.00;99495.31;5155609;27;20192;-51
2023/12/03 03:11:39;;;;;;;0.10;0.10;;;;;;;-1.36;100.00;99499.72;5155551;27;20266;-52
2023/12/03 03:14:27;;;;;;;0.10;0.10;;;;;;;-1.03;100.00;99495.91;5155611;27;20212;-51
2023/12/03 03:17:14;;;;;;;0.10;0.10;;;;;;;-1.10;100.00;99492.50;5155530;27;20197;-51
2023/12/03 03:20:01;;;;;;;0.10;0.10;;;;;;;-1.37;100.00;99491.06;5153834;27;20283;-51
2023/12/03 03:22:48;;;;;;;0.10;0.10;;;;;;;-1.32;100.00;99493.63;5155400;27;20196;-51
2023/12/03 03:25:35;;;;;;;0.10;0.10;;;;;;;-1.46;100.00;99496.34;5155373;27;20278;-50
2023/12/03 03:28:22;;;;;;;0.10;0.10;;;;;;;-1.55;100.00;99501.63;5154851;27;20223;-51
2023/12/03 03:31:11;;;;;;;0.00;0.00;;;;;;;-1.59;100.00;99500.81;5155140;27;20193;-51
2023/12/03 03:33:57;;;;;;;0.00;0.00;;;;;;;-1.36;100.00;99505.78;5155241;27;20732;-50
2023/12/03 03:36:44;;;;;;;0.10;0.10;;;;;;;-1.58;100.00;99512.91;5139481;27;20192;-51
2023/12/03 03:39:31;;;;;;;0.00;0.00;;;;;;;-1.51;100.00;99506.81;5155025;27;20201;-52
2023/12/03 03:42:18;;;;;;;0.10;0.10;;;;;;;-1.77;100.00;99516.56;5154692;27;20288;-51
2023/12/03 03:45:06;;;;;;;0.10;0.10;;;;;;;-1.93;100.00;99515.84;5154942;27;20216;-51
2023/12/03 03:47:54;;;;;;;0.10;0.10;;;;;;;-1.76;100.00;99518.28;5154955;27;20197;-51
2023/12/03 03:50:41;;;;;;;0.00;0.00;;;;;;;-1.66;100.00;99513.88;5153662;27;20197;-51
2023/12/03 03:53:28;;;;;;;0.10;0.10;;;;;;;-1.83;100.00;99517.50;5154913;27;20216;-51
2023/12/03 03:56:17;;;;;;;0.00;0.00;;;;;;;-1.66;100.00;99522.50;5154725;27;20208;-51
2023/12/03 03:59:04;;;;;;;0.10;0.10;;;;;;;-1.92;100.00;99525.34;5154919;27;20306;-51
2023/12/03 04:01:51;;;;;;;0.10;0.10;;;;;;;-1.56;100.00;99518.09;5154518;27;20222;-51
2023/12/03 04:04:39;;;;;;;0.00;0.00;;;;;;;-1.73;100.00;99520.88;5153561;27;20306;-51
2023/12/03 04:07:26;;;;;;;0.10;0.10;;;;;;;-1.79;100.00;99520.91;5154720;27;20212;-51
2023/12/03 04:10:13;;;;;;;0.10;0.10;;;;;;;-2.20;100.00;99522.09;5154578;27;20193;-51
2023/12/03 04:12:59;;;;;;;0.10;0.10;;;;;;;-2.40;100.00;99529.13;5154594;27;20204;-50
2023/12/03 04:15:46;;;;;;;0.10;0.10;;;;;;;-2.30;100.00;99528.22;5154593;27;20188;-50
2023/12/03 04:18:33;;;;;;;0.10;0.10;;;;;;;-2.08;100.00;99539.28;5158179;27;20192;-51
2023/12/03 04:21:26;;;;;;;0.10;0.10;;;;;;;-2.00;100.00;99550.50;5157453;27;20694;-51
2023/12/03 04:24:13;;;;;;;0.10;0.10;;;;;;;-2.08;100.00;99547.09;5158802;27;20188;-52
2023/12/03 04:27:00;;;;;;;0.10;0.10;;;;;;;-2.26;100.00;99549.78;5158503;27;20390;-51
2023/12/03 04:29:47;;;;;;;0.00;0.00;;;;;;;-2.04;100.00;99549.63;5158774;27;20243;-51
2023/12/03 04:32:34;;;;;;;0.10;0.10;;;;;;;-1.80;100.00;99545.16;5158795;27;20185;-51
2023/12/03 04:35:20;;;;;;;0.07;0.07;;;;;;;-1.84;100.00;99548.63;5157295;27;20188;-51
2023/12/03 04:38:09;;;;;;;0.10;0.10;;;;;;;-1.97;100.00;99554.78;5158646;27;20204;-51
2023/12/03 04:40:55;;;;;;;0.10;0.10;;;;;;;-2.21;100.00;99545.44;5158473;27;20288;-51
2023/12/03 04:43:42;;;;;;;0.10;0.10;;;;;;;-2.06;100.00;99553.13;5158506;27;20250;-51
2023/12/03 04:46:29;;;;;;;0.10;0.10;;;;;;;-2.16;100.00;99556.66;5158308;27;20188;-51
2023/12/03 04:49:16;;;;;;;0.10;0.10;;;;;;;-2.12;100.00;99555.78;5157080;27;20238;-51
2023/12/03 04:52:03;;;;;;;0.10;0.10;;;;;;;-1.95;100.00;99558.22;5158170;27;20213;-51
2023/12/03 04:54:51;;;;;;;0.07;0.07;;;;;;;-1.84;100.00;99561.59;5158327;27;20644;-50
2023/12/03 04:57:38;;;;;;;0.10;0.10;;;;;;;-1.65;100.00;99562.31;5158184;27;20319;-52
2023/12/03 05:00:25;;;;;;;0.10;0.10;;;;;;;-1.92;100.00;99571.22;5158041;27;20208;-51
2023/12/03 05:03:12;;;;;;;0.10;0.10;;;;;;;-2.05;100.00;99562.63;5158149;27;20185;-51
2023/12/03 05:05:59;;;;;;;0.00;0.00;;;;;;;-2.23;100.00;99568.78;5156730;27;20674;-50
2023/12/03 05:08:46;;;;;;;0.10;0.10;;;;;;;-2.30;100.00;99569.72;5157799;27;20208;-51
2023/12/03 05:11:39;;;;;;;0.00;0.00;;;;;;;-2.11;100.00;99566.13;5157927;27;20687;-51
2023/12/03 05:14:26;;;;;;;0.00;0.00;;;;;;;-1.70;100.00;99567.56;5157885;27;20328;-51
2023/12/03 05:17:13;;;;;;;0.10;0.10;;;;;;;-1.98;100.00;99574.69;5157641;27;20213;-51
2023/12/03 05:20:00;;;;;;;0.10;0.10;;;;;;;-1.94;100.00;99572.94;5156506;27;20197;-51
2023/12/03 05:22:47;;;;;;;0.00;0.00;;;;;;;-2.00;100.00;99576.44;5157457;27;20216;-51
2023/12/03 05:25:34;;;;;;;0.00;0.00;;;;;;;-2.12;100.00;99573.94;5157364;27;20209;-51
2023/12/03 05:28:22;;;;;;;0.00;0.00;;;;;;;-2.19;100.00;99573.09;5156954;27;20221;-51
2023/12/03 05:31:09;;;;;;;0.10;0.10;;;;;;;-1.96;100.00;99575.53;5157522;27;20185;-51
2023/12/03 05:33:56;;;;;;;0.00;0.00;;;;;;;-1.87;100.00;99569.41;5157502;27;20295;-51
2023/12/03 05:36:43;;;;;;;0.10;0.10;;;;;;;-1.92;100.00;99573.81;5157457;27;20200;-51
2023/12/03 05:39:30;;;;;;;0.00;0.00;;;;;;;-1.67;100.00;99570.13;5157342;27;20199;-51
2023/12/03 05:42:17;;;;;;;0.10;0.10;;;;;;;-1.60;100.00;99577.00;5156975;27;20788;-52
2023/12/03 05:45:07;;;;;;;0.00;0.00;;;;;;;-1.99;100.00;99583.34;5157359;27;20184;-51
2023/12/03 05:47:54;;;;;;;0.03;0.03;;;;;;;-1.98;100.00;99577.28;5157310;27;20201;-51
2023/12/03 05:50:41;;;;;;;0.00;0.00;;;;;;;-2.08;100.00;99586.88;5155651;27;20197;-51
2023/12/03 05:53:28;;;;;;;0.10;0.10;;;;;;;-1.99;100.00;99592.88;5157125;27;20201;-51
2023/12/03 05:56:15;;;;;;;0.07;0.07;;;;;;;-1.87;100.00;99590.19;5157243;27;20184;-51
2023/12/03 05:59:02;;;;;;;0.10;0.10;;;;;;;-2.23;100.00;99592.13;5156929;27;20272;-51
2023/12/03 06:01:51;;;;;;;0.10;0.10;;;;;;;-2.38;100.00;99598.28;5156796;27;20699;-51
2023/12/03 06:04:38;;;;;;;0.10;0.10;;;;;;;-2.21;100.00;99605.97;5155573;27;20274;-51
2023/12/03 06:07:25;;;;;;;0.07;0.07;;;;;;;-2.24;100.00;99608.56;5156724;27;20192;-52
2023/12/03 06:10:11;;;;;;;0.10;0.10;;;;;;;-2.41;100.00;99602.63;5156917;27;20185;-51
2023/12/03 06:12:58;;;;;;;0.00;0.00;;;;;;;-2.46;100.00;99613.00;5156739;27;20189;-51
2023/12/03 06:15:45;;;;;;;0.00;0.00;;;;;;;-2.67;100.00;99608.78;5156466;27;20205;-51
2023/12/03 06:18:33;;;;;;;0.10;0.10;;;;;;;-2.53;100.00;99618.22;5156663;27;20211;-51
2023/12/03 06:21:20;;;;;;;0.10;0.10;;;;;;;-2.64;100.00;99608.75;5155263;27;20189;-51
2023/12/03 06:24:07;;;;;;;0.10;0.10;;;;;;;-2.66;100.00;99610.50;5156506;27;20299;-51
2023/12/03 06:26:55;;;;;;;0.10;0.10;;;;;;;-2.93;100.00;99615.75;5156309;27;20236;-51
2023/12/03 06:29:41;;;;;;;0.00;0.00;;;;;;;-2.70;100.00;99615.69;5156464;27;20197;-51
2023/12/03 06:32:28;;;;;;;0.10;0.10;;;;;;;-2.47;100.00;99619.06;5156167;27;20197;-51
2023/12/03 06:35:17;;;;;;;0.10;0.10;;;;;;;-2.75;100.00;99615.72;5154969;27;20318;-51
2023/12/03 06:38:03;;;;;;;0.10;0.10;;;;;;;-2.74;100.00;99616.56;5156223;27;20197;-51
2023/12/03 06:40:51;;;;;;;0.10;0.10;;;;;;;-2.62;100.00;99622.56;5155394;27;20226;-51
2023/12/03 06:43:37;;;;;;;0.03;0.03;;;;;;;-3.03;100.00;99616.63;5155902;27;20307;-50
2023/12/03 06:46:24;;;;;;;0.10;0.10;;;;;;;-3.07;100.00;99633.06;5140441;27;20204;-51
2023/12/03 06:49:11;;;;;;;0.10;0.10;;;;;;;-2.79;100.00;99631.28;5154709;27;20207;-51
2023/12/03 06:51:59;;;;;;;0.10;0.10;;;;;;;-2.77;100.00;99640.78;5156018;27;20193;-51
2023/12/03 06:54:47;;;;;;;0.10;0.10;;;;;;;-2.36;100.00;99651.00;5155887;27;20204;-51
2023/12/03 06:57:33;;;;;;;0.10;0.10;;;;;;;-2.35;100.00;99652.72;5155814;27;20579;-51
2023/12/03 07:00:21;;;;;;;0.10;0.10;;;;;;;-2.15;100.00;99644.84;5155851;27;20188;-51
2023/12/03 07:03:08;;;;;;;0.10;0.10;;;;;;;-2.27;100.00;99657.03;5155517;27;20217;-53
2023/12/03 07:05:55;;;;;;;0.10;0.10;;;;;;;-2.34;100.00;99658.75;5154269;27;20197;-51
2023/12/03 07:08:44;;;;;;;0.10;0.10;;;;;;;-2.56;100.00;99662.31;5155677;27;20189;-52
2023/12/03 07:11:31;;;;;;;0.10;0.10;;;;;;;-2.62;100.00;99658.84;5155738;27;20257;-51
2023/12/03 07:14:18;;;;;;;0.10;0.10;;;;;;;-2.80;100.00;99652.84;5155549;27;20196;-51
2023/12/03 07:17:06;;;;;;;0.10;0.10;;;;;;;-2.87;100.00;99662.41;5155462;27;20200;-51
2023/12/03 07:19:53;;;;;;;0.10;0.10;;;;;;;-2.39;100.00;99668.31;5154028;27;20197;-51
2023/12/03 07:22:40;;;;;;;0.10;0.10;;;;;;;-2.71;100.00;99674.44;5155257;27;20204;-51
2023/12/03 07:25:28;;;;;;;0.10;0.10;;;;;;;-2.72;100.00;99671.84;5155360;27;20189;-51
2023/12/03 07:28:14;;;;;;;0.10;0.10;;;;;;;-2.61;100.00;99675.28;5154972;27;20221;-51
2023/12/03 07:31:03;;;;;;;0.10;0.10;;;;;;;-2.59;100.00;99678.75;5155244;27;20195;-51
2023/12/03 07:33:49;;;;;;;0.10;0.10;;;;;;;-2.61;100.00;99676.16;5155318;27;20188;-51
2023/12/03 07:36:36;;;;;;;0.10;0.10;;;;;;;-2.65;100.00;99676.16;5155176;27;20205;-51
2023/12/03 07:39:24;;;;;;;0.10;0.10;;;;;;;-2.62;100.00;99682.19;5155072;27;20208;-51
2023/12/03 07:42:12;;;;;;;0.00;0.00;;;;;;;-2.76;100.00;99688.28;5154970;27;20195;-51
2023/12/03 07:44:58;;;;;;;0.10;0.10;;;;;;;-2.68;100.00;99696.91;5154913;27;20189;-52
2023/12/03 07:47:45;;;;;;;0.10;0.10;;;;;;;-2.61;100.00;99707.28;5154990;27;20196;-51
2023/12/03 07:50:32;;;;;;;0.10;0.10;;;;;;;-2.28;100.00;99715.81;5153557;27;20193;-51
2023/12/03 07:53:19;;;;;;;0.00;0.00;;;;;;;-2.26;100.00;99715.81;5154901;27;20674;-51
2023/12/03 07:56:08;;;;;;;0.10;0.10;;;;;;;-2.25;100.00;99717.53;5154837;27;20679;-51
2023/12/03 07:58:56;;;;;;;0.10;0.10;;;;;;;-2.34;100.00;99715.84;5154875;27;20189;-51
2023/12/03 08:01:42;;;;;;;0.10;0.10;;;;;;;-2.31;100.00;99719.31;5155028;27;20201;-52
2023/12/03 08:04:29;;;;;;;0.10;0.10;;;;;;;-2.03;100.00;99722.66;5153155;27;20305;-51
2023/12/03 08:07:16;;;;;;;0.00;0.00;;;;;;;-2.09;100.00;99720.06;5154628;27;20270;-52
2023/12/03 08:10:03;;;;;;;0.00;0.00;;;;;;;-1.69;100.00;99734.59;5154690;27;20193;-51
2023/12/03 08:12:50;;;;;;;0.10;0.10;;;;;;;-2.04;100.00;99744.25;5154634;27;20223;-51
2023/12/03 08:15:38;;;;;;;0.10;0.10;;;;;;;-1.92;100.00;99735.59;5154706;27;20196;-52
2023/12/03 08:18:25;;;;;;;0.10;0.10;;;;;;;-1.96;100.00;99736.44;5154435;27;20196;-52
2023/12/03 08:21:12;;;;;;;0.10;0.10;;;;;;;-2.04;100.00;99739.06;5153238;27;20187;-52
2023/12/03 08:23:59;;;;;;;0.10;0.10;;;;;;;-1.64;100.00;99733.72;5154268;27;20285;-52
2023/12/03 08:26:46;;;;;;;0.10;0.10;;;;;;;-1.65;100.00;99731.97;5154378;27;20293;-52
2023/12/03 08:29:33;;;;;;;0.10;0.10;;;;;;;-1.57;100.00;99732.78;5154498;27;20288;-51
2023/12/03 08:32:21;;;;;;;0.00;0.00;;;;;;;-1.34;100.00;99737.00;5154442;27;20671;-52
2023/12/03 08:35:08;;;;;;;0.10;0.10;;;;;;;-1.64;100.00;99730.22;5153134;27;20188;-52
2023/12/03 08:37:55;;;;;;;0.00;0.00;;;;;;;-1.49;100.00;99724.97;5154392;27;20201;-52
2023/12/03 08:40:42;;;;;;;0.10;0.10;;;;;;;-1.32;100.00;99722.25;5152922;27;20211;-52
2023/12/03 08:43:29;;;;;;;0.00;0.00;;;;;;;-1.18;100.00;99734.25;5153322;27;20220;-51
2023/12/03 08:46:16;;;;;;;0.10;0.10;;;;;;;-1.32;100.00;99733.50;5153342;27;20204;-52
2023/12/03 08:49:04;;;;;;;0.10;0.10;;;;;;;-1.19;100.00;99742.06;5153160;27;20212;-52
2023/12/03 08:51:50;;;;;;;0.10;0.10;;;;;;;-0.89;100.00;99741.81;5154245;27;20193;-52
2023/12/03 08:54:37;;;;;;;0.00;0.00;;;;;;;-0.76;100.00;99745.22;5154253;27;20258;-51
2023/12/03 08:57:24;;;;;;;0.00;0.00;;;;;;;-1.59;100.00;99752.72;5154299;27;20201;-51
2023/12/03 09:00:13;;;;;;;0.10;0.10;;;;;;;-1.32;100.00;99754.28;5154163;27;20197;-51
2023/12/03 09:03:00;;;;;;;0.00;0.00;;;;;;;-1.51;100.00;99765.66;5154272;27;20729;-52
2023/12/03 09:05:48;;;;;;;0.00;0.00;;;;;;;-1.65;100.00;99767.47;5156113;27;20266;-51
2023/12/03 09:08:35;;;;;;;0.10;0.10;;;;;;;-1.60;100.00;99763.13;5156617;27;20720;-52
2023/12/03 09:11:23;;;;;;;0.10;0.10;;;;;;;-1.40;100.00;99753.47;5157012;27;20289;-52
2023/12/03 09:14:10;;;;;;;0.00;0.00;;;;;;;-1.12;100.00;99751.56;5156660;27;20217;-51
2023/12/03 09:16:58;;;;;;;0.10;0.10;;;;;;;-1.20;100.00;99761.13;5157616;27;20204;-52
2023/12/03 09:19:44;;;;;;;0.10;0.10;;;;;;;-1.16;100.00;99766.31;5155599;27;20193;-51
2023/12/03 09:22:33;;;;;;;0.07;0.07;;;;;;;-1.19;100.00;99768.06;5157599;27;20192;-52
2023/12/03 09:25:20;;;;;;;0.00;0.00;;;;;;;-1.31;100.00;99763.81;5157660;27;20208;-52
2023/12/03 09:28:07;;;;;;;0.10;0.10;;;;;;;-0.75;100.00;99762.53;5157282;27;20236;-51
2023/12/03 09:30:54;;;;;;;0.00;0.00;;;;;;;-1.23;100.00;99766.38;5157606;27;20302;-52
2023/12/03 09:33:40;;;;;;;0.07;0.07;;;;;;;-1.17;100.00;99777.56;5157265;27;20189;-52
2023/12/03 09:36:27;;;;;;;0.10;0.10;;;;;;;-0.73;100.00;99765.97;5155677;27;20273;-52
2023/12/03 09:39:16;;;;;;;0.10;0.10;;;;;;;-0.64;100.00;99767.63;5157027;27;20192;-51
2023/12/03 09:42:08;;;;;;;0.10;0.10;;;;;;;-0.25;100.00;99761.19;5157375;27;20197;-52
2023/12/03 09:45:00;;;;;;;0.10;0.10;;;;;;;-0.27;100.00;99762.09;5157018;27;20236;-52
2023/12/03 09:47:50;;;;;;;0.00;0.00;;;;;;;-0.04;100.00;99762.69;5157292;27;20189;-52
2023/12/03 09:50:38;;;;;;;0.10;0.10;;;;;;;-0.55;100.00;99767.56;5155743;27;20193;-52
2023/12/03 09:53:30;;;;;;;0.10;0.10;;;;;;;-0.47;100.00;99768.34;5157164;27;20687;-52
2023/12/03 09:56:19;;;;;;;0.10;0.10;;;;;;;-0.16;100.00;99771.50;5157133;27;20189;-52
2023/12/03 09:59:09;;;;;;;0.00;0.00;;;;;;;-0.10;100.00;99752.31;5156908;27;20270;-52
2023/12/03 10:01:58;;;;;;;0.00;0.00;;;;;;;-0.35;100.00;99752.59;5157083;27;20299;-52
2023/12/03 10:04:45;;;;;;;0.00;0.00;;;;;;;-0.11;100.00;99751.47;5155419;27;20236;-52
2023/12/03 10:07:33;;;;;;;0.10;0.10;;;;;;;-0.03;100.00;99747.03;5156767;27;20758;-53
2023/12/03 10:10:21;;;;;;;0.10;0.10;;;;;;;0.07;100.00;99758.19;5156715;27;20192;-52
2023/12/03 10:13:11;;;;;;;0.10;0.10;;;;;;;0.04;100.00;99755.66;5156876;27;20185;-52
2023/12/03 10:15:58;;;;;;;0.10;0.10;;;;;;;0.05;100.00;99754.75;5155448;27;20278;-51
2023/12/03 10:18:45;;;;;;;0.10;0.10;;;;;;;0.31;100.00;99756.19;5156552;27;20201;-51
2023/12/03 10:21:32;;;;;;;0.00;0.00;;;;;;;0.05;100.00;99757.38;5156555;27;20641;-52
2023/12/03 10:24:20;;;;;;;0.07;0.07;;;;;;;0.11;100.00;99752.09;5156270;27;20258;-52
2023/12/03 10:27:12;;;;;;;0.03;0.03;;;;;;;0.22;100.00;99750.22;5156300;27;20232;-51
2023/12/03 10:30:01;;;;;;;0.10;0.10;;;;;;;0.04;100.00;99749.56;5156448;27;20224;-52
2023/12/03 10:32:48;;;;;;;0.03;0.03;;;;;;;0.04;100.00;99750.44;5156326;27;20192;-52
2023/12/03 10:35:37;;;;;;;0.10;0.10;;;;;;;0.72;100.00;99753.00;5154915;27;20188;-52
2023/12/03 10:38:24;;;;;;;0.10;0.10;;;;;;;0.53;100.00;99750.66;5156085;27;20269;-52
2023/12/03 10:41:13;;;;;;;0.10;0.10;;;;;;;0.69;100.00;99743.50;5155909;27;20200;-52
2023/12/03 10:44:03;;;;;;;0.00;0.00;;;;;;;-0.07;100.00;99740.16;5155647;27;20213;-51
2023/12/03 10:46:51;;;;;;;0.10;0.10;;;;;;;0.03;100.00;99747.84;5155531;27;20209;-52
2023/12/03 10:49:38;;;;;;;0.10;0.10;;;;;;;-0.08;100.00;99734.97;5154664;27;20192;-51
2023/12/03 10:52:26;;;;;;;0.10;0.10;;;;;;;-0.22;100.00;99739.44;5155984;27;20192;-52
2023/12/03 10:55:12;;;;;;;0.10;0.10;;;;;;;0.02;100.00;99740.94;5155762;27;20201;-52
2023/12/03 10:58:03;;;;;;;0.10;0.10;;;;;;;-0.04;100.00;99734.03;5155904;27;20197;-52
2023/12/03 11:00:59;;;;;;;0.10;0.10;;;;;;;0.07;100.00;99732.16;5155842;27;20213;-52
2023/12/03 11:03:59;;;;;;;0.10;0.10;;;;;;;0.43;100.00;99737.78;5155650;27;20242;-51
2023/12/03 11:06:49;;;;;;;0.10;0.10;;;;;;;0.53;100.00;99732.41;5155429;27;20185;-51
2023/12/03 11:09:37;;;;;;;0.10;0.10;;;;;;;0.72;100.00;99726.94;5155585;27;20192;-52
2023/12/03 11:12:27;;;;;;;0.00;0.00;;;;;;;0.54;100.00;99728.94;5155617;27;20204;-51
2023/12/03 11:15:15;;;;;;;0.10;0.10;;;;;;;0.33;100.00;99737.03;5155562;27;20213;-51
2023/12/03 11:18:02;;;;;;;0.10;0.10;;;;;;;0.26;100.00;99730.19;5155389;27;20193;-54
2023/12/03 11:20:52;;;;;;;0.10;0.10;;;;;;;0.68;100.00;99728.75;5154095;27;20259;-52
2023/12/03 11:24:06;;;;;;;0.07;0.07;;;;;;;0.66;100.00;99724.41;5155395;27;20193;-52
2023/12/03 11:26:53;;;;;;;0.00;0.00;;;;;;;0.94;100.00;99719.63;5154746;27;20236;-52
2023/12/03 11:29:50;;;;;;;0.10;0.10;;;;;;;0.58;100.00;99721.94;5155014;27;20246;-52
2023/12/03 11:32:38;;;;;;;0.10;0.10;;;;;;;0.74;100.00;99715.59;5155105;27;20214;-52
2023/12/03 11:35:34;;;;;;;0.00;0.00;;;;;;;0.63;100.00;99724.47;5153779;27;20189;-52
2023/12/03 11:38:32;;;;;;;0.10;0.10;;;;;;;0.40;100.00;99709.19;5155150;27;20258;-52
2023/12/03 11:41:19;;;;;;;0.10;0.10;;;;;;;0.45;100.00;99707.34;5155069;27;20196;-52
2023/12/03 11:44:27;;;;;;;0.07;0.07;;;;;;;0.74;100.00;99702.56;5154927;27;20267;-52
2023/12/03 11:47:15;;;;;;;0.10;0.10;;;;;;;0.80;100.00;99701.63;5154639;27;20226;-52
2023/12/03 11:50:02;;;;;;;0.10;0.10;;;;;;;0.97;100.00;99701.34;5153536;27;20311;-52
2023/12/03 11:52:49;;;;;;;0.10;0.10;;;;;;;1.28;100.00;99707.78;5154629;27;20204;-52
2023/12/03 11:55:39;;;;;;;0.00;0.00;;;;;;;1.22;100.00;99707.00;5154800;27;20189;-52
2023/12/03 11:58:27;;;;;;;0.10;0.10;;;;;;;1.39;100.00;99690.16;5154585;27;20242;-52
2023/12/03 12:01:14;;;;;;;0.10;0.10;;;;;;;1.06;100.00;99693.34;5154471;27;20192;-52
2023/12/03 12:04:01;;;;;;;0.10;0.10;;;;;;;1.28;100.00;99689.50;5153669;27;20223;-52
2023/12/03 12:06:48;;;;;;;0.10;0.10;;;;;;;0.96;100.00;99682.22;5154732;27;20189;-52
2023/12/03 12:09:35;;;;;;;0.10;0.10;;;;;;;0.84;100.00;99682.41;5154703;27;20204;-53
2023/12/03 12:12:23;;;;;;;0.03;0.03;;;;;;;1.49;100.00;99679.56;5154173;27;20193;-52
2023/12/03 12:15:13;;;;;;;0.10;0.10;;;;;;;2.16;100.00;99683.41;5154654;27;20667;-52
2023/12/03 12:18:00;;;;;;;0.10;0.10;;;;;;;2.23;100.00;99685.88;5154353;27;20200;-52
2023/12/03 12:20:46;;;;;;;0.10;0.10;;;;;;;2.37;100.00;99676.84;5153150;27;20258;-52
2023/12/03 12:23:33;;;;;;;0.10;0.10;;;;;;;3.26;100.00;99676.41;5154044;27;20185;-52
2023/12/03 12:26:20;;;;;;;0.00;0.00;;;;;;;3.96;100.00;99668.41;5154139;27;20400;-52
2023/12/03 12:29:08;;;;;;;0.00;0.00;;;;;;;3.11;100.00;99669.84;5154371;27;20315;-52
2023/12/03 12:31:56;;;;;;;0.10;0.10;;;;;;;3.27;100.00;99672.03;5154460;27;20204;-53
2023/12/03 12:34:45;;;;;;;0.00;0.00;;;;;;;3.04;100.00;99673.50;5153107;27;20683;-53
2023/12/03 12:37:32;;;;;;;0.03;0.03;;;;;;;2.53;100.00;99676.50;5154213;27;20201;-54
2023/12/03 12:40:26;;;;;;;0.10;0.10;;;;;;;1.91;100.00;99681.31;5158427;27;20272;-51
2023/12/03 12:43:14;;;;;;;0.00;0.00;;;;;;;1.51;100.00;99678.63;5158606;27;20234;-52
2023/12/03 12:46:08;;;;;;;0.10;0.10;;;;;;;1.04;100.00;99677.72;5158433;27;20212;-52
2023/12/03 12:49:12;;;;;;;0.10;0.10;;;;;;;1.29;100.00;99670.34;5158413;27;20200;-52
2023/12/03 12:52:10;;;;;;;0.10;0.10;;;;;;;1.58;100.00;99676.78;5158402;27;20203;-52
2023/12/03 12:54:58;;;;;;;0.10;0.10;;;;;;;1.59;100.00;99673.28;5158352;27;20258;-52
2023/12/03 12:57:52;;;;;;;0.10;0.10;;;;;;;1.70;100.00;99671.31;5158293;27;20235;-52
2023/12/03 13:00:39;;;;;;;0.00;0.00;;;;;;;1.85;100.00;99675.38;5158106;27;20274;-53
2023/12/03 13:03:28;;;;;;;0.00;0.00;;;;;;;2.05;100.00;99667.97;5158125;27;20261;-53